Terminal Aerodrome Forecast
Issued by NWS

Home | Current Version | Previous Version | Text Only | Print | Product List | Glossary On
Versions: 1 2 3 4 5 6 7 8 9 10 11 12 13 14 15 16 17 18
750
FTUS43 KOAX 260522
TAFBFF
TAF
KBFF 260522Z 2606/2706 09005KT P6SM SCT150
     FM262100 04008KT P6SM VCTS SCT070CB BKN100
     FM270300 04007KT P6SM BKN100=

USA.gov is the U.S. government's official web portal to all federal, state and local government web resources and services.